createdAt,value
2018-06-27T00:00:13.429Z,17.55
2018-06-27T00:02:41.966Z,17.47
2018-06-27T00:05:10.336Z,17.56
2018-06-27T00:07:38.817Z,17.57
2018-06-27T00:10:07.280Z,17.55
2018-06-27T00:12:35.798Z,17.49
2018-06-27T00:15:04.493Z,17.32
2018-06-27T00:17:32.957Z,17.17
2018-06-27T00:20:01.534Z,17.27
2018-06-27T00:22:30.042Z,17.39
2018-06-27T00:24:58.381Z,17.55
2018-06-27T00:27:26.800Z,17.52
2018-06-27T00:29:55.182Z,17.57
2018-06-27T00:32:23.694Z,17.66
2018-06-27T00:34:52.250Z,17.71
2018-06-27T00:37:20.592Z,17.60
2018-06-27T00:39:49.183Z,17.74
2018-06-27T00:42:17.772Z,17.75
2018-06-27T00:44:46.251Z,17.56
2018-06-27T00:47:14.733Z,17.49
2018-06-27T00:49:43.109Z,17.47
2018-06-27T00:52:11.451Z,17.40
2018-06-27T00:54:39.978Z,17.31
2018-06-27T00:57:08.444Z,17.41
2018-06-27T00:59:36.873Z,17.53
2018-06-27T01:02:05.201Z,17.62
2018-06-27T01:04:33.685Z,17.56
2018-06-27T01:07:02.149Z,17.59
2018-06-27T01:09:30.752Z,17.57
2018-06-27T01:11:59.118Z,17.68
2018-06-27T01:14:27.514Z,17.71
2018-06-27T01:16:55.994Z,17.67
2018-06-27T01:19:24.338Z,17.55
2018-06-27T01:21:52.743Z,17.24
2018-06-27T01:24:21.362Z,17.51
2018-06-27T01:26:49.817Z,17.50
2018-06-27T01:29:18.097Z,17.39
2018-06-27T01:31:46.497Z,17.35
2018-06-27T01:34:15.054Z,17.41
2018-06-27T01:36:43.437Z,17.62
2018-06-27T01:39:11.813Z,17.49
2018-06-27T01:41:40.116Z,17.47
2018-06-27T01:44:08.469Z,17.61
2018-06-27T01:46:36.953Z,17.83
2018-06-27T01:49:05.424Z,17.65
2018-06-27T01:51:33.711Z,17.71
2018-06-27T01:54:02.302Z,17.49
2018-06-27T01:56:30.771Z,17.55
2018-06-27T01:58:59.155Z,17.61
2018-06-27T02:01:27.533Z,17.59
2018-06-27T02:03:55.917Z,17.61
2018-06-27T02:06:24.392Z,17.67
2018-06-27T02:08:52.670Z,17.55
2018-06-27T02:11:21.040Z,17.62
2018-06-27T02:13:49.429Z,17.48
2018-06-27T02:16:17.908Z,17.53
2018-06-27T02:18:46.293Z,17.61
2018-06-27T02:21:14.805Z,17.61
2018-06-27T02:23:43.136Z,17.44
2018-06-27T02:26:11.632Z,17.30
2018-06-27T02:28:39.902Z,17.32
2018-06-27T02:31:08.285Z,17.29
2018-06-27T02:33:36.826Z,17.28
2018-06-27T02:36:05.235Z,17.39
2018-06-27T02:38:33.621Z,17.44
2018-06-27T02:41:01.874Z,17.40
2018-06-27T02:43:32.878Z,17.11
2018-06-27T02:46:01.329Z,17.29
2018-06-27T02:48:29.793Z,17.21
2018-06-27T02:50:57.973Z,17.20
2018-06-27T02:53:26.549Z,16.98
2018-06-27T02:55:54.738Z,17.06
2018-06-27T02:58:22.846Z,17.26
2018-06-27T03:00:51.190Z,17.24
2018-06-27T03:03:19.674Z,17.26
2018-06-27T03:05:47.946Z,17.21
2018-06-27T03:08:16.225Z,17.33
2018-06-27T03:10:44.502Z,17.33
2018-06-27T03:13:12.872Z,17.34
2018-06-27T03:15:41.041Z,17.44
2018-06-27T03:18:09.356Z,17.35
2018-06-27T03:20:37.907Z,17.33
2018-06-27T03:23:06.284Z,17.43
2018-06-27T03:25:34.770Z,17.52
2018-06-27T03:28:03.142Z,17.52
2018-06-27T03:30:31.318Z,17.18
2018-06-27T03:32:59.913Z,17.33
2018-06-27T03:35:28.072Z,17.38
2018-06-27T03:37:56.454Z,17.37
2018-06-27T03:40:25.049Z,17.36
2018-06-27T03:42:53.361Z,17.24
2018-06-27T03:45:21.917Z,17.36
2018-06-27T03:47:50.085Z,17.37
2018-06-27T03:50:18.564Z,17.26
2018-06-27T03:52:48.154Z,17.29
2018-06-27T03:55:16.553Z,17.23
2018-06-27T03:57:45.294Z,17.22
2018-06-27T04:00:13.726Z,17.35
2018-06-27T04:02:42.336Z,17.32
2018-06-27T04:05:10.697Z,17.44
2018-06-27T04:07:39.066Z,17.41
2018-06-27T04:10:08.653Z,17.49
2018-06-27T04:12:37.208Z,17.58
2018-06-27T04:15:05.564Z,17.52
2018-06-27T04:17:33.965Z,17.46
2018-06-27T04:20:02.352Z,17.42
2018-06-27T04:22:34.557Z,17.47
2018-06-27T04:25:02.845Z,17.49
2018-06-27T04:27:31.860Z,17.49
2018-06-27T04:30:01.722Z,17.27
2018-06-27T04:32:30.221Z,17.04
2018-06-27T04:34:59.493Z,17.26
2018-06-27T04:37:27.816Z,17.28
2018-06-27T04:39:56.174Z,17.37
2018-06-27T04:42:24.573Z,17.32
2018-06-27T04:44:53.130Z,17.16
2018-06-27T04:47:21.409Z,17.31
2018-06-27T04:49:49.874Z,17.26
2018-06-27T04:52:18.417Z,17.35
2018-06-27T04:54:46.799Z,17.42
2018-06-27T04:57:15.262Z,17.20
2018-06-27T04:59:43.550Z,17.17
2018-06-27T05:02:11.802Z,17.34
2018-06-27T05:04:39.961Z,17.59
2018-06-27T05:07:08.405Z,17.67
2018-06-27T05:09:36.721Z,17.56
2018-06-27T05:12:05.012Z,17.30
2018-06-27T05:14:33.649Z,17.38
2018-06-27T05:17:01.868Z,17.38
2018-06-27T05:19:30.237Z,17.47
2018-06-27T05:21:58.846Z,17.59
2018-06-27T05:24:27.110Z,17.57
2018-06-27T05:26:55.633Z,17.49
2018-06-27T05:29:23.964Z,17.51
2018-06-27T05:31:52.341Z,17.22
2018-06-27T05:34:20.670Z,17.24
2018-06-27T05:36:49.095Z,17.31
2018-06-27T05:39:18.186Z,17.23
2018-06-27T05:41:47.032Z,17.15
2018-06-27T05:44:16.048Z,17.15
2018-06-27T05:46:45.524Z,17.24
2018-06-27T05:49:14.545Z,17.17
2018-06-27T05:51:43.079Z,17.03
2018-06-27T05:54:11.561Z,16.96
2018-06-27T05:56:40.131Z,17.10
2018-06-27T05:59:08.598Z,17.37
2018-06-27T06:01:37.036Z,17.57
2018-06-27T06:04:05.561Z,17.68
2018-06-27T06:06:34.263Z,17.71
2018-06-27T06:09:02.914Z,17.65
2018-06-27T06:11:31.374Z,17.40
2018-06-27T06:14:00.007Z,17.37
2018-06-27T06:16:28.444Z,17.48
2018-06-27T06:18:56.777Z,17.69
2018-06-27T06:21:25.134Z,17.40
2018-06-27T06:23:53.372Z,17.57
2018-06-27T06:26:21.705Z,17.73
2018-06-27T06:28:49.973Z,17.89
2018-06-27T06:31:18.401Z,18.01
2018-06-27T06:33:46.844Z,18.14
2018-06-27T06:36:15.313Z,18.06
2018-06-27T06:38:43.800Z,18.03
2018-06-27T06:41:12.073Z,17.86
2018-06-27T06:43:40.498Z,17.63
2018-06-27T06:46:08.897Z,17.91
2018-06-27T06:48:37.318Z,17.91
2018-06-27T06:51:05.835Z,17.73
2018-06-27T06:53:34.254Z,17.71
2018-06-27T06:56:02.802Z,17.80
2018-06-27T06:58:31.481Z,17.83
2018-06-27T07:00:59.716Z,17.99
2018-06-27T07:03:28.097Z,17.95
2018-06-27T07:05:56.312Z,17.57
2018-06-27T07:08:24.766Z,17.66
2018-06-27T07:10:53.043Z,17.83
2018-06-27T07:13:21.345Z,18.07
2018-06-27T07:15:49.580Z,18.04
2018-06-27T07:18:17.764Z,17.99
2018-06-27T07:20:45.982Z,17.75
2018-06-27T07:23:14.227Z,17.93
2018-06-27T07:25:42.816Z,17.94
2018-06-27T07:28:11.330Z,17.99
2018-06-27T07:30:46.418Z,18.00
2018-06-27T07:33:14.629Z,17.98
2018-06-27T07:35:43.137Z,17.89
2018-06-27T07:38:12.485Z,18.01
2018-06-27T07:40:41.105Z,18.11
2018-06-27T07:43:09.550Z,17.88
2018-06-27T07:45:38.026Z,18.08
2018-06-27T08:13:49.957Z,18.41
2018-06-27T08:49:05.274Z,18.37
2018-06-27T09:33:36.034Z,20.01
2018-06-27T09:36:04.637Z,20.24
2018-06-27T09:38:32.884Z,20.14
2018-06-27T09:41:01.156Z,19.81
2018-06-27T09:43:29.689Z,19.87
2018-06-27T09:45:58.250Z,19.78
2018-06-27T09:48:26.528Z,19.84
2018-06-27T09:50:55.112Z,19.88
2018-06-27T09:53:23.673Z,20.01
2018-06-27T09:55:51.932Z,20.29
2018-06-27T09:58:20.120Z,20.52
2018-06-27T10:00:48.646Z,20.60
2018-06-27T10:03:17.137Z,20.51
2018-06-27T10:05:45.665Z,20.49
2018-06-27T10:08:14.250Z,20.72
2018-06-27T10:10:42.630Z,20.96
2018-06-27T10:13:11.136Z,20.92
2018-06-27T10:15:39.560Z,20.82
2018-06-27T10:18:07.966Z,20.79
2018-06-27T10:20:36.172Z,20.78
2018-06-27T10:23:04.630Z,20.61
2018-06-27T10:25:32.947Z,20.54
2018-06-27T10:28:01.268Z,20.61
2018-06-27T10:30:29.758Z,20.78
2018-06-27T10:32:58.129Z,20.69
2018-06-27T10:35:26.425Z,20.42
2018-06-27T10:37:55.031Z,20.38
2018-06-27T10:40:23.542Z,20.77
2018-06-27T10:42:51.954Z,20.95
2018-06-27T10:45:20.482Z,20.78
2018-06-27T10:47:48.826Z,20.70
2018-06-27T10:50:17.106Z,20.55
2018-06-27T10:52:45.628Z,20.53
2018-06-27T10:55:18.782Z,20.55
2018-06-27T10:57:47.308Z,20.70
2018-06-27T11:00:15.957Z,20.82
2018-06-27T11:02:44.334Z,20.83
2018-06-27T11:05:12.860Z,21.20
2018-06-27T11:07:41.418Z,21.43
2018-06-27T11:10:09.886Z,21.56
2018-06-27T11:12:38.423Z,21.73
2018-06-27T11:15:07.543Z,21.54
2018-06-27T11:17:36.131Z,21.53
2018-06-27T11:20:04.748Z,21.46
2018-06-27T11:22:33.234Z,21.71
2018-06-27T11:25:02.066Z,21.71
2018-06-27T11:27:30.605Z,21.83
2018-06-27T11:29:59.041Z,21.89
2018-06-27T11:32:27.646Z,22.03
2018-06-27T11:34:56.250Z,22.20
2018-06-27T11:37:24.476Z,21.77
2018-06-27T11:39:52.877Z,21.77
2018-06-27T11:42:21.387Z,21.70
2018-06-27T11:44:49.814Z,21.75
2018-06-27T11:47:18.489Z,21.76
2018-06-27T11:49:46.701Z,21.77
2018-06-27T11:52:15.226Z,21.69
2018-06-27T11:54:43.770Z,21.78
2018-06-27T11:57:12.130Z,21.61
2018-06-27T11:59:40.557Z,21.58
2018-06-27T12:02:08.905Z,21.50
2018-06-27T12:04:37.381Z,21.80
2018-06-27T12:07:05.763Z,21.92
2018-06-27T12:09:34.154Z,22.09
2018-06-27T12:12:02.756Z,22.09
2018-06-27T12:14:31.341Z,22.14
2018-06-27T12:17:00.046Z,22.21
2018-06-27T12:19:28.442Z,22.12
2018-06-27T12:21:56.965Z,22.18
2018-06-27T12:24:25.529Z,21.89
2018-06-27T12:27:00.342Z,21.88
2018-06-27T12:29:28.902Z,21.88
2018-06-27T12:31:57.221Z,21.91
2018-06-27T12:34:25.710Z,21.75
2018-06-27T12:36:54.047Z,21.79
2018-06-27T12:39:22.574Z,21.94
2018-06-27T12:41:51.293Z,22.09
2018-06-27T12:44:19.891Z,22.09
2018-06-27T12:46:48.313Z,22.23
2018-06-27T12:49:16.804Z,22.11
2018-06-27T12:51:45.463Z,22.08
2018-06-27T12:54:13.890Z,22.13
2018-06-27T12:56:42.341Z,22.17
2018-06-27T12:59:10.874Z,22.24
2018-06-27T13:01:39.318Z,22.04
2018-06-27T13:04:07.893Z,22.38
2018-06-27T13:06:36.516Z,22.50
2018-06-27T13:09:08.085Z,22.20
2018-06-27T13:11:37.137Z,21.92
2018-06-27T13:14:05.839Z,22.04
2018-06-27T13:16:34.400Z,22.15
2018-06-27T13:19:02.934Z,21.95
2018-06-27T13:21:31.360Z,21.85
2018-06-27T13:23:59.789Z,21.79
2018-06-27T13:26:28.266Z,21.95
2018-06-27T13:28:56.809Z,21.98
2018-06-27T13:31:25.608Z,21.89
2018-06-27T13:33:54.257Z,21.99
2018-06-27T13:36:22.609Z,21.78
2018-06-27T13:38:51.173Z,21.77
2018-06-27T13:41:19.410Z,21.80
2018-06-27T13:43:47.917Z,21.96
2018-06-27T13:46:16.201Z,22.09
2018-06-27T13:48:44.709Z,22.35
2018-06-27T13:51:13.043Z,22.55
2018-06-27T13:53:41.434Z,22.75
2018-06-27T13:56:10.087Z,22.90
2018-06-27T13:58:38.373Z,22.84
2018-06-27T14:01:06.869Z,22.65
2018-06-27T14:03:35.377Z,22.27
2018-06-27T14:06:03.833Z,22.16
2018-06-27T14:08:32.355Z,22.18
2018-06-27T14:11:00.825Z,22.11
2018-06-27T14:13:29.164Z,22.09
2018-06-27T14:15:57.555Z,21.96
2018-06-27T14:18:26.074Z,21.94
2018-06-27T14:20:54.497Z,21.90
2018-06-27T14:23:23.238Z,21.89
2018-06-27T14:25:51.713Z,21.79
2018-06-27T14:28:20.005Z,21.89
2018-06-27T14:30:48.017Z,21.96
2018-06-27T14:33:16.239Z,21.99
2018-06-27T14:35:44.677Z,22.15
2018-06-27T14:38:13.221Z,22.22
2018-06-27T14:40:41.637Z,22.17
2018-06-27T14:43:09.935Z,21.96
2018-06-27T14:45:38.447Z,21.87
2018-06-27T14:48:07.024Z,21.88
2018-06-27T14:50:35.467Z,21.93
2018-06-27T14:53:03.990Z,21.91
2018-06-27T14:55:32.442Z,21.89
2018-06-27T14:58:00.801Z,21.89
2018-06-27T15:00:29.443Z,21.82
2018-06-27T15:02:57.890Z,21.76
2018-06-27T15:05:26.113Z,21.67
2018-06-27T15:07:54.360Z,21.77
2018-06-27T15:10:22.914Z,21.65
2018-06-27T15:12:51.294Z,21.59
2018-06-27T15:15:19.605Z,21.68
2018-06-27T15:17:47.950Z,21.57
2018-06-27T15:20:16.328Z,21.49
2018-06-27T15:22:44.621Z,21.40
2018-06-27T15:25:13.228Z,21.40
2018-06-27T15:27:41.576Z,21.41
2018-06-27T15:30:09.784Z,21.43
2018-06-27T15:32:38.052Z,21.47
2018-06-27T15:35:06.505Z,21.42
2018-06-27T15:37:34.915Z,21.47
2018-06-27T15:40:03.354Z,21.51
2018-06-27T15:42:31.533Z,21.46
2018-06-27T15:45:00.062Z,21.57
2018-06-27T15:47:28.295Z,21.49
2018-06-27T15:49:56.866Z,21.45
2018-06-27T15:52:25.365Z,21.66
2018-06-27T15:54:53.431Z,21.65
2018-06-27T15:57:21.739Z,21.87
2018-06-27T15:59:52.884Z,21.78
2018-06-27T16:02:21.636Z,21.38
2018-06-27T16:04:50.033Z,21.33
2018-06-27T16:07:21.193Z,21.25
2018-06-27T16:09:50.462Z,21.38
2018-06-27T16:12:18.738Z,21.51
2018-06-27T16:14:47.253Z,21.55
2018-06-27T16:17:15.928Z,21.41
2018-06-27T16:19:44.101Z,21.27
2018-06-27T16:22:12.673Z,21.24
2018-06-27T16:24:40.846Z,21.38
2018-06-27T16:27:09.259Z,21.42
2018-06-27T16:29:37.782Z,21.57
2018-06-27T16:32:06.127Z,21.76
2018-06-27T16:34:34.548Z,21.59
2018-06-27T16:37:03.057Z,21.50
2018-06-27T16:39:31.539Z,21.66
2018-06-27T16:42:07.677Z,21.79
2018-06-27T16:44:41.450Z,21.42
2018-06-27T16:47:12.704Z,21.58
2018-06-27T16:50:04.886Z,21.73
2018-06-27T16:52:41.564Z,21.58
2018-06-27T16:55:13.136Z,21.60
2018-06-27T16:58:00.532Z,21.38
2018-06-27T17:00:38.100Z,21.48
2018-06-27T17:03:13.812Z,21.44
2018-06-27T17:05:45.394Z,21.13
2018-06-27T17:08:53.247Z,21.11
2018-06-27T17:11:31.837Z,20.97
2018-06-27T17:14:00.541Z,20.87
2018-06-27T17:16:28.841Z,21.16
2018-06-27T17:18:57.493Z,21.26
2018-06-27T17:21:26.210Z,21.11
2018-06-27T17:23:54.917Z,21.08
2018-06-27T17:26:23.744Z,21.17
2018-06-27T17:28:52.418Z,21.12
2018-06-27T17:31:21.054Z,21.16
2018-06-27T17:33:49.887Z,21.10
2018-06-27T17:36:18.491Z,20.95
2018-06-27T17:38:47.915Z,20.96
2018-06-27T17:41:16.364Z,20.91
2018-06-27T17:43:44.812Z,21.13
2018-06-27T17:46:13.381Z,21.03
2018-06-27T17:48:42.100Z,20.96
2018-06-27T17:51:10.669Z,21.06
2018-06-27T17:53:39.174Z,21.06
2018-06-27T17:56:07.868Z,20.96
2018-06-27T17:58:36.513Z,21.10
2018-06-27T18:01:05.054Z,21.11
2018-06-27T18:03:33.726Z,21.03
2018-06-27T18:06:02.373Z,21.12
2018-06-27T18:08:30.487Z,21.01
2018-06-27T18:10:58.987Z,21.12
2018-06-27T18:13:27.490Z,21.04
2018-06-27T18:15:56.697Z,21.10
2018-06-27T18:18:25.310Z,21.09
2018-06-27T18:20:53.683Z,20.79
2018-06-27T18:23:22.278Z,20.78
2018-06-27T18:25:51.010Z,20.69
2018-06-27T18:28:19.618Z,20.95
2018-06-27T18:30:48.214Z,20.96
2018-06-27T18:33:17.625Z,20.89
2018-06-27T18:35:56.353Z,20.82
2018-06-27T18:38:24.892Z,20.52
2018-06-27T18:40:53.483Z,20.68
2018-06-27T18:43:22.299Z,20.97
2018-06-27T18:45:50.931Z,20.99
2018-06-27T18:48:19.465Z,20.34
2018-06-27T18:50:48.335Z,20.24
2018-06-27T18:53:16.863Z,20.20
2018-06-27T18:55:52.161Z,20.37
2018-06-27T18:58:20.597Z,20.43
2018-06-27T19:00:49.272Z,20.48
2018-06-27T19:03:17.595Z,20.33
2018-06-27T19:05:46.347Z,20.27
2018-06-27T19:08:14.523Z,20.26
2018-06-27T19:10:42.502Z,20.20
2018-06-27T19:13:10.595Z,20.07
2018-06-27T19:15:38.615Z,19.90
2018-06-27T19:18:06.677Z,19.73
2018-06-27T19:20:34.881Z,19.66
2018-06-27T19:23:03.222Z,19.68
2018-06-27T19:25:37.983Z,19.75
2018-06-27T19:28:06.415Z,19.86
2018-06-27T19:30:34.463Z,20.10
2018-06-27T19:37:26.763Z,20.11
2018-06-27T19:39:55.146Z,20.18
2018-06-27T19:42:23.102Z,20.23
2018-06-27T19:44:51.161Z,20.24
2018-06-27T19:47:19.463Z,20.10
2018-06-27T19:49:48.975Z,19.92
2018-06-27T19:52:17.283Z,19.91
2018-06-27T19:54:45.606Z,19.75
2018-06-27T19:57:14.117Z,19.71
2018-06-27T19:59:42.457Z,19.66
2018-06-27T20:02:10.705Z,19.67
2018-06-27T20:04:38.663Z,19.59
2018-06-27T20:07:07.218Z,19.57
2018-06-27T20:13:08.492Z,19.51
2018-06-27T20:15:36.938Z,19.51
2018-06-27T20:18:05.438Z,19.45
2018-06-27T20:20:33.810Z,19.51
2018-06-27T20:23:02.177Z,19.43
2018-06-27T20:25:30.762Z,19.43
2018-06-27T20:27:59.237Z,19.44
2018-06-27T20:30:27.420Z,19.45
2018-06-27T20:32:55.786Z,19.46
2018-06-27T20:35:24.174Z,19.39
2018-06-27T20:37:52.762Z,19.42
2018-06-27T20:40:21.140Z,19.48
2018-06-27T20:42:49.504Z,19.29
2018-06-27T20:45:17.811Z,19.15
2018-06-27T20:47:46.272Z,19.12
2018-06-27T20:50:14.990Z,19.10
2018-06-27T20:52:43.354Z,18.91
2018-06-27T20:55:11.788Z,18.98
2018-06-27T20:57:39.955Z,19.03
2018-06-27T21:00:08.525Z,19.05
2018-06-27T21:02:36.934Z,18.97
2018-06-27T21:05:05.457Z,19.03
2018-06-27T21:07:33.998Z,19.11
2018-06-27T21:10:02.127Z,19.25
2018-06-27T21:12:30.546Z,19.28
2018-06-27T21:14:58.818Z,19.23
2018-06-27T21:17:27.054Z,19.28
2018-06-27T21:19:55.369Z,19.32
2018-06-27T21:22:23.751Z,19.26
2018-06-27T21:24:52.061Z,19.28
2018-06-27T21:27:20.507Z,19.19
2018-06-27T21:29:48.778Z,19.09
2018-06-27T21:32:17.193Z,19.15
2018-06-27T21:34:45.743Z,19.21
2018-06-27T21:37:14.122Z,19.18
2018-06-27T21:39:42.397Z,19.11
2018-06-27T21:42:10.378Z,19.16
2018-06-27T21:44:38.890Z,19.23
2018-06-27T21:47:07.222Z,19.28
2018-06-27T21:49:35.596Z,19.20
2018-06-27T21:52:04.077Z,18.97
2018-06-27T21:54:32.491Z,19.03
2018-06-27T21:57:00.933Z,19.06
2018-06-27T21:59:29.042Z,19.12
2018-06-27T22:01:57.495Z,19.09
2018-06-27T22:04:25.861Z,19.00
2018-06-27T22:06:53.975Z,18.92
2018-06-27T22:09:22.319Z,18.95
2018-06-27T22:11:50.500Z,19.06
2018-06-27T22:14:18.903Z,19.07
2018-06-27T22:16:47.256Z,19.19
2018-06-27T22:19:15.621Z,19.14
2018-06-27T22:21:44.177Z,19.04
2018-06-27T22:24:12.382Z,19.03
2018-06-27T22:26:40.547Z,19.20
2018-06-27T22:29:08.726Z,19.33
2018-06-27T22:31:36.668Z,19.28
2018-06-27T22:34:05.078Z,19.33
2018-06-27T22:36:33.460Z,19.63
2018-06-27T22:39:01.631Z,19.69
2018-06-27T22:41:30.103Z,19.33
2018-06-27T22:43:58.284Z,19.38
2018-06-27T22:46:26.863Z,19.81
2018-06-27T22:48:55.163Z,19.79
2018-06-27T22:51:23.623Z,19.42
2018-06-27T22:53:52.089Z,19.58
2018-06-27T22:56:20.433Z,19.57
2018-06-27T22:58:48.864Z,19.34
2018-06-27T23:01:17.222Z,19.22
2018-06-27T23:03:45.511Z,19.20
2018-06-27T23:06:14.114Z,19.23
2018-06-27T23:08:42.463Z,19.31
2018-06-27T23:11:10.438Z,19.31
2018-06-27T23:13:38.854Z,19.14
2018-06-27T23:16:07.293Z,19.24
2018-06-27T23:18:35.735Z,19.49
2018-06-27T23:21:04.139Z,19.39
2018-06-27T23:23:32.630Z,19.18
2018-06-27T23:26:00.893Z,19.18
2018-06-27T23:28:29.177Z,19.21
2018-06-27T23:30:57.446Z,19.22
2018-06-27T23:33:25.860Z,19.15
2018-06-27T23:35:53.894Z,19.03
2018-06-27T23:38:22.166Z,19.00
2018-06-27T23:40:50.555Z,18.90
2018-06-27T23:43:18.488Z,18.98
2018-06-27T23:45:46.750Z,18.99
2018-06-27T23:48:15.114Z,19.02
2018-06-27T23:50:43.693Z,19.03
2018-06-27T23:53:11.947Z,19.06
2018-06-27T23:55:40.371Z,19.13
2018-06-27T23:58:08.614Z,19.28
